sensor_id;sensor_type;location;lat;lon;timestamp;P1;durP1;ratioP1;P2;durP2;ratioP2
29314;SDS011;16320;53.954;9.506;2022-10-16T00:02:46;59.20;;;19.90;;
29314;SDS011;16320;53.954;9.506;2022-10-16T00:06:43;57.50;;;19.88;;
29314;SDS011;16320;53.954;9.506;2022-10-16T00:10:30;60.42;;;19.75;;
29314;SDS011;16320;53.954;9.506;2022-10-16T00:14:23;50.75;;;18.55;;
29314;SDS011;16320;53.954;9.506;2022-10-16T00:17:53;51.28;;;18.67;;
29314;SDS011;16320;53.954;9.506;2022-10-16T00:21:25;52.40;;;18.63;;
29314;SDS011;16320;53.954;9.506;2022-10-16T00:24:54;61.58;;;19.75;;
29314;SDS011;16320;53.954;9.506;2022-10-16T00:29:01;47.67;;;19.50;;
29314;SDS011;16320;53.954;9.506;2022-10-16T00:32:34;47.65;;;18.85;;
29314;SDS011;16320;53.954;9.506;2022-10-16T00:35:44;46.65;;;19.92;;
29314;SDS011;16320;53.954;9.506;2022-10-16T00:39:14;52.15;;;18.77;;
29314;SDS011;16320;53.954;9.506;2022-10-16T00:42:30;46.70;;;19.30;;
29314;SDS011;16320;53.954;9.506;2022-10-16T00:46:19;50.63;;;19.00;;
29314;SDS011;16320;53.954;9.506;2022-10-16T00:54:22;51.65;;;19.70;;
29314;SDS011;16320;53.954;9.506;2022-10-16T00:57:41;55.13;;;19.70;;
29314;SDS011;16320;53.954;9.506;2022-10-16T01:01:41;53.08;;;18.65;;
29314;SDS011;16320;53.954;9.506;2022-10-16T01:04:58;52.95;;;19.10;;
29314;SDS011;16320;53.954;9.506;2022-10-16T01:08:59;50.78;;;19.80;;
29314;SDS011;16320;53.954;9.506;2022-10-16T01:13:12;50.50;;;18.38;;
29314;SDS011;16320;53.954;9.506;2022-10-16T01:25:00;54.85;;;19.77;;
29314;SDS011;16320;53.954;9.506;2022-10-16T01:28:54;47.15;;;18.35;;
29314;SDS011;16320;53.954;9.506;2022-10-16T01:36:35;47.00;;;17.83;;
29314;SDS011;16320;53.954;9.506;2022-10-16T01:40:18;42.38;;;18.38;;
29314;SDS011;16320;53.954;9.506;2022-10-16T01:43:35;41.78;;;16.92;;
29314;SDS011;16320;53.954;9.506;2022-10-16T01:51:28;40.70;;;17.92;;
29314;SDS011;16320;53.954;9.506;2022-10-16T01:54:40;46.80;;;16.58;;
29314;SDS011;16320;53.954;9.506;2022-10-16T01:57:56;40.65;;;16.15;;
29314;SDS011;16320;53.954;9.506;2022-10-16T02:01:58;42.00;;;15.60;;
29314;SDS011;16320;53.954;9.506;2022-10-16T02:05:32;39.42;;;16.10;;
29314;SDS011;16320;53.954;9.506;2022-10-16T02:08:50;38.28;;;14.85;;
29314;SDS011;16320;53.954;9.506;2022-10-16T02:11:59;34.90;;;15.05;;
29314;SDS011;16320;53.954;9.506;2022-10-16T02:15:37;36.58;;;15.38;;
29314;SDS011;16320;53.954;9.506;2022-10-16T02:18:53;33.97;;;13.00;;
29314;SDS011;16320;53.954;9.506;2022-10-16T02:22:01;33.80;;;13.10;;
29314;SDS011;16320;53.954;9.506;2022-10-16T02:25:17;28.38;;;12.13;;
29314;SDS011;16320;53.954;9.506;2022-10-16T02:28:45;27.58;;;11.65;;
29314;SDS011;16320;53.954;9.506;2022-10-16T02:31:58;24.75;;;11.45;;
29314;SDS011;16320;53.954;9.506;2022-10-16T02:35:33;18.98;;;11.77;;
29314;SDS011;16320;53.954;9.506;2022-10-16T02:38:59;21.20;;;10.68;;
29314;SDS011;16320;53.954;9.506;2022-10-16T02:42:19;24.63;;;9.27;;
29314;SDS011;16320;53.954;9.506;2022-10-16T02:45:24;17.27;;;8.13;;
29314;SDS011;16320;53.954;9.506;2022-10-16T02:48:28;28.67;;;8.80;;
29314;SDS011;16320;53.954;9.506;2022-10-16T02:51:42;17.15;;;8.10;;
29314;SDS011;16320;53.954;9.506;2022-10-16T02:55:11;16.35;;;6.95;;
29314;SDS011;16320;53.954;9.506;2022-10-16T02:58:16;13.77;;;7.28;;
29314;SDS011;16320;53.954;9.506;2022-10-16T03:01:58;18.00;;;6.55;;
29314;SDS011;16320;53.954;9.506;2022-10-16T03:05:30;12.00;;;6.38;;
29314;SDS011;16320;53.954;9.506;2022-10-16T03:08:43;11.50;;;5.80;;
29314;SDS011;16320;53.954;9.506;2022-10-16T03:12:22;19.95;;;6.22;;
29314;SDS011;16320;53.954;9.506;2022-10-16T03:15:26;13.27;;;6.20;;
29314;SDS011;16320;53.954;9.506;2022-10-16T03:18:42;12.70;;;5.60;;
29314;SDS011;16320;53.954;9.506;2022-10-16T03:22:11;14.77;;;5.45;;
29314;SDS011;16320;53.954;9.506;2022-10-16T03:25:23;14.30;;;4.80;;
29314;SDS011;16320;53.954;9.506;2022-10-16T03:28:28;10.70;;;4.70;;
29314;SDS011;16320;53.954;9.506;2022-10-16T03:31:33;12.52;;;4.40;;
29314;SDS011;16320;53.954;9.506;2022-10-16T03:34:39;12.15;;;4.82;;
29314;SDS011;16320;53.954;9.506;2022-10-16T03:43:45;7.32;;;4.38;;
29314;SDS011;16320;53.954;9.506;2022-10-16T03:46:58;11.77;;;3.55;;
29314;SDS011;16320;53.954;9.506;2022-10-16T03:50:44;12.20;;;3.55;;
29314;SDS011;16320;53.954;9.506;2022-10-16T03:54:06;11.02;;;4.05;;
29314;SDS011;16320;53.954;9.506;2022-10-16T03:57:17;11.98;;;4.00;;
29314;SDS011;16320;53.954;9.506;2022-10-16T04:00:22;9.95;;;3.70;;
29314;SDS011;16320;53.954;9.506;2022-10-16T04:03:32;9.55;;;4.22;;
29314;SDS011;16320;53.954;9.506;2022-10-16T04:06:37;10.13;;;4.13;;
29314;SDS011;16320;53.954;9.506;2022-10-16T04:09:52;9.00;;;4.10;;
29314;SDS011;16320;53.954;9.506;2022-10-16T04:13:15;13.35;;;4.63;;
29314;SDS011;16320;53.954;9.506;2022-10-16T04:16:25;10.70;;;3.78;;
29314;SDS011;16320;53.954;9.506;2022-10-16T04:19:37;9.95;;;5.50;;
29314;SDS011;16320;53.954;9.506;2022-10-16T04:22:58;7.20;;;3.13;;
29314;SDS011;16320;53.954;9.506;2022-10-16T04:26:10;8.35;;;3.63;;
29314;SDS011;16320;53.954;9.506;2022-10-16T04:30:27;11.07;;;3.42;;
29314;SDS011;16320;53.954;9.506;2022-10-16T04:33:59;9.13;;;3.78;;
29314;SDS011;16320;53.954;9.506;2022-10-16T04:37:39;5.95;;;3.20;;
29314;SDS011;16320;53.954;9.506;2022-10-16T04:40:50;8.05;;;3.03;;
29314;SDS011;16320;53.954;9.506;2022-10-16T04:43:55;8.48;;;3.47;;
29314;SDS011;16320;53.954;9.506;2022-10-16T04:50:57;12.05;;;3.28;;
29314;SDS011;16320;53.954;9.506;2022-10-16T04:54:52;5.85;;;3.13;;
29314;SDS011;16320;53.954;9.506;2022-10-16T04:58:34;5.10;;;2.95;;
29314;SDS011;16320;53.954;9.506;2022-10-16T05:01:45;6.43;;;2.80;;
29314;SDS011;16320;53.954;9.506;2022-10-16T05:05:02;11.35;;;3.65;;
29314;SDS011;16320;53.954;9.506;2022-10-16T05:08:42;6.55;;;3.08;;
29314;SDS011;16320;53.954;9.506;2022-10-16T05:15:37;7.18;;;3.45;;
29314;SDS011;16320;53.954;9.506;2022-10-16T05:18:44;9.98;;;3.17;;
29314;SDS011;16320;53.954;9.506;2022-10-16T05:21:59;5.45;;;2.95;;
29314;SDS011;16320;53.954;9.506;2022-10-16T05:25:04;8.43;;;2.58;;
29314;SDS011;16320;53.954;9.506;2022-10-16T05:28:14;13.13;;;3.63;;
29314;SDS011;16320;53.954;9.506;2022-10-16T05:31:27;10.02;;;3.17;;
29314;SDS011;16320;53.954;9.506;2022-10-16T05:34:32;8.50;;;3.05;;
29314;SDS011;16320;53.954;9.506;2022-10-16T05:37:48;7.20;;;3.13;;
29314;SDS011;16320;53.954;9.506;2022-10-16T05:40:52;9.98;;;3.28;;
29314;SDS011;16320;53.954;9.506;2022-10-16T05:43:58;9.85;;;4.60;;
29314;SDS011;16320;53.954;9.506;2022-10-16T05:47:08;7.35;;;2.90;;
29314;SDS011;16320;53.954;9.506;2022-10-16T05:50:29;12.52;;;3.00;;
29314;SDS011;16320;53.954;9.506;2022-10-16T05:53:52;6.53;;;2.83;;
29314;SDS011;16320;53.954;9.506;2022-10-16T05:57:21;10.13;;;3.45;;
29314;SDS011;16320;53.954;9.506;2022-10-16T06:00:53;10.75;;;3.03;;
29314;SDS011;16320;53.954;9.506;2022-10-16T06:04:05;10.40;;;3.15;;
29314;SDS011;16320;53.954;9.506;2022-10-16T06:07:14;7.50;;;3.80;;
29314;SDS011;16320;53.954;9.506;2022-10-16T06:10:19;8.32;;;3.95;;
29314;SDS011;16320;53.954;9.506;2022-10-16T06:13:24;5.88;;;3.47;;
29314;SDS011;16320;53.954;9.506;2022-10-16T06:16:29;10.70;;;3.92;;
29314;SDS011;16320;53.954;9.506;2022-10-16T06:19:39;11.90;;;3.70;;
29314;SDS011;16320;53.954;9.506;2022-10-16T06:22:44;8.18;;;3.65;;
29314;SDS011;16320;53.954;9.506;2022-10-16T06:25:49;9.40;;;4.13;;
29314;SDS011;16320;53.954;9.506;2022-10-16T06:28:54;12.55;;;4.25;;
29314;SDS011;16320;53.954;9.506;2022-10-16T06:32:00;8.75;;;4.38;;
29314;SDS011;16320;53.954;9.506;2022-10-16T06:35:04;11.98;;;4.45;;
29314;SDS011;16320;53.954;9.506;2022-10-16T06:38:09;10.77;;;4.15;;
29314;SDS011;16320;53.954;9.506;2022-10-16T06:41:16;9.18;;;5.00;;
29314;SDS011;16320;53.954;9.506;2022-10-16T06:44:23;10.68;;;4.75;;
29314;SDS011;16320;53.954;9.506;2022-10-16T06:47:33;13.38;;;5.13;;
29314;SDS011;16320;53.954;9.506;2022-10-16T06:50:38;11.15;;;4.53;;
29314;SDS011;16320;53.954;9.506;2022-10-16T06:53:46;11.15;;;5.63;;
29314;SDS011;16320;53.954;9.506;2022-10-16T06:57:08;11.45;;;6.15;;
29314;SDS011;16320;53.954;9.506;2022-10-16T07:00:13;14.70;;;6.03;;
29314;SDS011;16320;53.954;9.506;2022-10-16T07:03:18;9.95;;;5.68;;
29314;SDS011;16320;53.954;9.506;2022-10-16T07:06:27;12.85;;;6.47;;
29314;SDS011;16320;53.954;9.506;2022-10-16T07:09:37;13.48;;;7.20;;
29314;SDS011;16320;53.954;9.506;2022-10-16T07:12:47;12.48;;;7.10;;
29314;SDS011;16320;53.954;9.506;2022-10-16T07:15:55;11.90;;;7.32;;
29314;SDS011;16320;53.954;9.506;2022-10-16T07:19:02;17.95;;;7.78;;
29314;SDS011;16320;53.954;9.506;2022-10-16T07:22:08;18.25;;;7.95;;
29314;SDS011;16320;53.954;9.506;2022-10-16T07:25:12;17.33;;;9.73;;
29314;SDS011;16320;53.954;9.506;2022-10-16T07:28:17;20.95;;;9.40;;
29314;SDS011;16320;53.954;9.506;2022-10-16T07:31:22;21.80;;;10.75;;
29314;SDS011;16320;53.954;9.506;2022-10-16T07:34:27;22.15;;;10.85;;
29314;SDS011;16320;53.954;9.506;2022-10-16T07:37:31;20.63;;;11.00;;
29314;SDS011;16320;53.954;9.506;2022-10-16T07:40:38;22.08;;;12.00;;
29314;SDS011;16320;53.954;9.506;2022-10-16T07:43:48;23.88;;;12.23;;
29314;SDS011;16320;53.954;9.506;2022-10-16T07:46:55;22.27;;;12.80;;
29314;SDS011;16320;53.954;9.506;2022-10-16T07:49:59;22.05;;;11.73;;
29314;SDS011;16320;53.954;9.506;2022-10-16T07:53:04;24.85;;;12.52;;
29314;SDS011;16320;53.954;9.506;2022-10-16T07:56:08;22.98;;;13.15;;
29314;SDS011;16320;53.954;9.506;2022-10-16T07:59:13;23.38;;;11.65;;
29314;SDS011;16320;53.954;9.506;2022-10-16T08:02:21;17.17;;;10.85;;
29314;SDS011;16320;53.954;9.506;2022-10-16T08:05:29;20.98;;;10.43;;
29314;SDS011;16320;53.954;9.506;2022-10-16T08:08:36;17.40;;;11.05;;
29314;SDS011;16320;53.954;9.506;2022-10-16T08:11:40;19.20;;;10.50;;
29314;SDS011;16320;53.954;9.506;2022-10-16T08:14:45;17.85;;;10.45;;
29314;SDS011;16320;53.954;9.506;2022-10-16T08:17:54;19.13;;;10.70;;
29314;SDS011;16320;53.954;9.506;2022-10-16T08:21:01;18.48;;;9.55;;
29314;SDS011;16320;53.954;9.506;2022-10-16T08:24:07;29.75;;;10.30;;
29314;SDS011;16320;53.954;9.506;2022-10-16T08:27:12;17.65;;;10.60;;
29314;SDS011;16320;53.954;9.506;2022-10-16T08:33:22;15.05;;;9.20;;
29314;SDS011;16320;53.954;9.506;2022-10-16T08:36:27;19.13;;;9.23;;
29314;SDS011;16320;53.954;9.506;2022-10-16T08:39:31;13.90;;;9.27;;
29314;SDS011;16320;53.954;9.506;2022-10-16T08:49:56;20.33;;;8.55;;
29314;SDS011;16320;53.954;9.506;2022-10-16T08:53:06;12.30;;;7.88;;
29314;SDS011;16320;53.954;9.506;2022-10-16T08:56:18;14.95;;;8.02;;
29314;SDS011;16320;53.954;9.506;2022-10-16T08:59:23;21.45;;;8.48;;
29314;SDS011;16320;53.954;9.506;2022-10-16T09:02:32;17.83;;;8.25;;
29314;SDS011;16320;53.954;9.506;2022-10-16T09:09:18;18.90;;;8.77;;
29314;SDS011;16320;53.954;9.506;2022-10-16T09:16:58;18.38;;;8.55;;
29314;SDS011;16320;53.954;9.506;2022-10-16T09:23:54;20.25;;;8.60;;
29314;SDS011;16320;53.954;9.506;2022-10-16T09:30:17;15.82;;;7.93;;
29314;SDS011;16320;53.954;9.506;2022-10-16T09:33:25;13.15;;;7.80;;
29314;SDS011;16320;53.954;9.506;2022-10-16T09:36:43;14.27;;;7.60;;
29314;SDS011;16320;53.954;9.506;2022-10-16T09:39:50;12.35;;;7.38;;
29314;SDS011;16320;53.954;9.506;2022-10-16T09:43:01;10.02;;;6.28;;
29314;SDS011;16320;53.954;9.506;2022-10-16T09:49:37;12.98;;;6.40;;
29314;SDS011;16320;53.954;9.506;2022-10-16T09:52:41;15.52;;;5.97;;
29314;SDS011;16320;53.954;9.506;2022-10-16T09:55:49;9.95;;;5.25;;
29314;SDS011;16320;53.954;9.506;2022-10-16T09:58:57;15.63;;;5.68;;
29314;SDS011;16320;53.954;9.506;2022-10-16T10:02:10;9.50;;;5.07;;
29314;SDS011;16320;53.954;9.506;2022-10-16T10:08:30;39.80;;;21.15;;
29314;SDS011;16320;53.954;9.506;2022-10-16T10:11:38;8.27;;;3.30;;
29314;SDS011;16320;53.954;9.506;2022-10-16T10:15:12;11.27;;;5.10;;
29314;SDS011;16320;53.954;9.506;2022-10-16T10:18:23;8.85;;;3.63;;
29314;SDS011;16320;53.954;9.506;2022-10-16T10:21:28;9.52;;;4.18;;
29314;SDS011;16320;53.954;9.506;2022-10-16T10:24:32;11.55;;;2.70;;
29314;SDS011;16320;53.954;9.506;2022-10-16T10:31:12;53.85;;;27.75;;
29314;SDS011;16320;53.954;9.506;2022-10-16T10:34:40;15.93;;;2.65;;
29314;SDS011;16320;53.954;9.506;2022-10-16T10:55:37;8.30;;;1.45;;
29314;SDS011;16320;53.954;9.506;2022-10-16T10:58:57;6.18;;;2.00;;
29314;SDS011;16320;53.954;9.506;2022-10-16T11:09:17;6.35;;;1.77;;
29314;SDS011;16320;53.954;9.506;2022-10-16T11:12:29;10.07;;;1.30;;
29314;SDS011;16320;53.954;9.506;2022-10-16T11:15:44;5.40;;;0.90;;
29314;SDS011;16320;53.954;9.506;2022-10-16T11:22:23;9.25;;;1.50;;
29314;SDS011;16320;53.954;9.506;2022-10-16T11:25:41;5.57;;;1.35;;
29314;SDS011;16320;53.954;9.506;2022-10-16T11:28:55;12.38;;;1.45;;
29314;SDS011;16320;53.954;9.506;2022-10-16T11:32:06;5.88;;;1.52;;
29314;SDS011;16320;53.954;9.506;2022-10-16T11:35:39;12.25;;;1.98;;
29314;SDS011;16320;53.954;9.506;2022-10-16T11:39:20;8.80;;;1.27;;
29314;SDS011;16320;53.954;9.506;2022-10-16T11:42:54;5.18;;;1.20;;
29314;SDS011;16320;53.954;9.506;2022-10-16T11:47:12;5.15;;;1.38;;
29314;SDS011;16320;53.954;9.506;2022-10-16T11:51:08;5.88;;;1.33;;
29314;SDS011;16320;53.954;9.506;2022-10-16T11:55:04;12.10;;;1.52;;
29314;SDS011;16320;53.954;9.506;2022-10-16T11:58:16;11.00;;;1.45;;
29314;SDS011;16320;53.954;9.506;2022-10-16T12:02:03;9.20;;;1.80;;
29314;SDS011;16320;53.954;9.506;2022-10-16T12:05:54;8.40;;;1.13;;
29314;SDS011;16320;53.954;9.506;2022-10-16T12:09:27;5.40;;;1.23;;
29314;SDS011;16320;53.954;9.506;2022-10-16T12:15:43;7.10;;;1.67;;
29314;SDS011;16320;53.954;9.506;2022-10-16T12:19:10;8.10;;;1.55;;
29314;SDS011;16320;53.954;9.506;2022-10-16T12:22:17;6.22;;;1.27;;
29314;SDS011;16320;53.954;9.506;2022-10-16T12:25:24;7.38;;;1.95;;
29314;SDS011;16320;53.954;9.506;2022-10-16T12:29:12;6.38;;;1.63;;
29314;SDS011;16320;53.954;9.506;2022-10-16T12:32:28;7.80;;;1.15;;
29314;SDS011;16320;53.954;9.506;2022-10-16T12:35:56;12.05;;;3.00;;
29314;SDS011;16320;53.954;9.506;2022-10-16T12:39:16;13.00;;;2.20;;
29314;SDS011;16320;53.954;9.506;2022-10-16T12:42:38;8.55;;;1.70;;
29314;SDS011;16320;53.954;9.506;2022-10-16T12:45:42;8.18;;;1.52;;
29314;SDS011;16320;53.954;9.506;2022-10-16T12:48:50;6.45;;;1.30;;
29314;SDS011;16320;53.954;9.506;2022-10-16T12:52:44;9.18;;;1.45;;
29314;SDS011;16320;53.954;9.506;2022-10-16T13:07:40;9.40;;;1.77;;
29314;SDS011;16320;53.954;9.506;2022-10-16T13:14:33;10.35;;;1.42;;
29314;SDS011;16320;53.954;9.506;2022-10-16T13:21:41;9.43;;;1.63;;
29314;SDS011;16320;53.954;9.506;2022-10-16T13:28:50;10.15;;;1.55;;
29314;SDS011;16320;53.954;9.506;2022-10-16T13:32:07;7.70;;;1.80;;
29314;SDS011;16320;53.954;9.506;2022-10-16T13:35:24;7.35;;;1.33;;
29314;SDS011;16320;53.954;9.506;2022-10-16T13:38:35;11.88;;;2.08;;
29314;SDS011;16320;53.954;9.506;2022-10-16T13:41:40;9.27;;;1.20;;
29314;SDS011;16320;53.954;9.506;2022-10-16T13:44:49;6.13;;;0.90;;
29314;SDS011;16320;53.954;9.506;2022-10-16T13:48:03;10.45;;;1.50;;
29314;SDS011;16320;53.954;9.506;2022-10-16T13:51:18;7.78;;;1.20;;
29314;SDS011;16320;53.954;9.506;2022-10-16T13:54:31;6.78;;;0.90;;
29314;SDS011;16320;53.954;9.506;2022-10-16T13:57:46;11.07;;;1.63;;
29314;SDS011;16320;53.954;9.506;2022-10-16T14:06:40;11.77;;;1.38;;
29314;SDS011;16320;53.954;9.506;2022-10-16T14:10:18;9.55;;;1.58;;
29314;SDS011;16320;53.954;9.506;2022-10-16T16:49:34;20.55;;;5.35;;
29314;SDS011;16320;53.954;9.506;2022-10-16T18:29:28;21.63;;;4.38;;
29314;SDS011;16320;53.954;9.506;2022-10-16T18:36:55;18.83;;;4.45;;
29314;SDS011;16320;53.954;9.506;2022-10-16T18:45:39;19.63;;;4.85;;
29314;SDS011;16320;53.954;9.506;2022-10-16T18:49:23;21.98;;;4.93;;
29314;SDS011;16320;53.954;9.506;2022-10-16T18:57:28;17.33;;;4.30;;
29314;SDS011;16320;53.954;9.506;2022-10-16T19:01:03;27.02;;;6.40;;
29314;SDS011;16320;53.954;9.506;2022-10-16T19:04:22;19.45;;;6.03;;
29314;SDS011;16320;53.954;9.506;2022-10-16T19:07:37;20.65;;;6.40;;
29314;SDS011;16320;53.954;9.506;2022-10-16T19:11:58;44.30;;;18.23;;
29314;SDS011;16320;53.954;9.506;2022-10-16T19:16:47;31.42;;;14.90;;
29314;SDS011;16320;53.954;9.506;2022-10-16T19:21:15;29.75;;;8.23;;
29314;SDS011;16320;53.954;9.506;2022-10-16T19:59:15;26.38;;;10.18;;
29314;SDS011;16320;53.954;9.506;2022-10-16T20:03:42;22.00;;;7.80;;
29314;SDS011;16320;53.954;9.506;2022-10-16T20:07:48;17.98;;;4.03;;
29314;SDS011;16320;53.954;9.506;2022-10-16T20:11:43;22.35;;;4.25;;
29314;SDS011;16320;53.954;9.506;2022-10-16T20:15:47;19.52;;;3.97;;
29314;SDS011;16320;53.954;9.506;2022-10-16T20:19:09;20.67;;;4.63;;
29314;SDS011;16320;53.954;9.506;2022-10-16T20:22:35;21.02;;;4.40;;
29314;SDS011;16320;53.954;9.506;2022-10-16T20:26:54;15.10;;;3.75;;
29314;SDS011;16320;53.954;9.506;2022-10-16T20:30:41;21.98;;;4.40;;
29314;SDS011;16320;53.954;9.506;2022-10-16T20:46:25;19.38;;;4.63;;
29314;SDS011;16320;53.954;9.506;2022-10-16T20:49:54;24.98;;;4.30;;
29314;SDS011;16320;53.954;9.506;2022-10-16T20:53:32;25.08;;;5.07;;
29314;SDS011;16320;53.954;9.506;2022-10-16T20:58:09;21.27;;;4.22;;
29314;SDS011;16320;53.954;9.506;2022-10-16T21:07:10;17.85;;;4.57;;
29314;SDS011;16320;53.954;9.506;2022-10-16T21:11:15;20.77;;;5.13;;
29314;SDS011;16320;53.954;9.506;2022-10-16T21:15:40;24.10;;;4.82;;
29314;SDS011;16320;53.954;9.506;2022-10-16T21:27:59;24.83;;;5.65;;
29314;SDS011;16320;53.954;9.506;2022-10-16T21:48:17;29.08;;;6.05;;
29314;SDS011;16320;53.954;9.506;2022-10-16T23:34:37;17.85;;;3.33;;
29314;SDS011;16320;53.954;9.506;2022-10-16T23:42:19;15.45;;;2.78;;
29314;SDS011;16320;53.954;9.506;2022-10-16T23:46:46;25.95;;;2.90;;
29314;SDS011;16320;53.954;9.506;2022-10-16T23:51:14;18.30;;;3.78;;
